Time;durP1;ratioP1;P1;durP2;ratioP2;P2;SDS_P1;SDS_P2;PMS_P1;PMS_P2;Temp;Humidity;BMP_temperature;BMP_pressure;BME280_temperature;BME280_humidity;BME280_pressure;Samples;Min_cycle;Max_cycle;Signal;HPM_P1;HPM_P2
2021/06/17 00:00:36;;;;;;;1.90;1.35;;;25.80;99.90;;;;;;20854406;22;20649;-66
2021/06/17 00:10:43;;;;;;;1.30;1.05;;;25.80;99.90;;;;;;20892426;28;20240;-67
2021/06/17 00:20:47;;;;;;;1.77;0.90;;;25.90;99.90;;;;;;20909927;28;20227;-68
2021/06/17 00:30:53;;;;;;;1.05;0.95;;;25.80;99.90;;;;;;20908121;28;20221;-67
2021/06/17 00:40:56;;;;;;;2.05;1.48;;;25.90;99.90;;;;;;20902859;28;20282;-68
2021/06/17 00:51:03;;;;;;;1.55;1.42;;;25.70;99.90;;;;;;20907139;28;20292;-67
2021/06/17 01:01:06;;;;;;;1.98;1.10;;;25.50;99.90;;;;;;20904425;22;20230;-71
2021/06/17 01:11:18;;;;;;;2.15;1.50;;;25.30;99.90;;;;;;20822212;28;20562;-71
2021/06/17 01:21:32;;;;;;;2.63;1.20;;;25.40;99.90;;;;;;20803610;28;20313;-70
2021/06/17 01:31:37;;;;;;;2.78;1.35;;;25.20;99.90;;;;;;20820351;28;20261;-71
2021/06/17 01:41:45;;;;;;;1.08;0.80;;;25.10;99.90;;;;;;20820202;28;20226;-70
2021/06/17 01:51:53;;;;;;;1.20;1.10;;;25.00;99.90;;;;;;20819514;28;20222;-70
2021/06/17 02:01:59;;;;;;;1.48;1.15;;;25.00;99.90;;;;;;20814785;23;20301;-67
2021/06/17 02:12:05;;;;;;;4.93;1.70;;;25.00;99.90;;;;;;20819384;28;20202;-66
2021/06/17 02:22:10;;;;;;;2.03;1.10;;;25.00;99.90;;;;;;20818512;28;20359;-68
2021/06/17 02:32:19;;;;;;;0.88;0.88;;;24.90;99.90;;;;;;20825898;28;20200;-68
2021/06/17 02:42:25;;;;;;;2.13;1.23;;;24.90;99.90;;;;;;20900730;28;20605;-68
2021/06/17 02:52:30;;;;;;;3.20;2.08;;;25.00;99.90;;;;;;20881014;28;20300;-68
2021/06/17 03:02:45;;;;;;;1.50;1.30;;;24.90;99.90;;;;;;20882605;22;20324;-71
2021/06/17 03:12:52;;;;;;;1.52;1.42;;;24.80;99.90;;;;;;20815010;28;20402;-70
2021/06/17 03:22:57;;;;;;;1.27;0.98;;;24.80;99.90;;;;;;20814299;28;20206;-72
2021/06/17 03:33:04;;;;;;;0.98;0.90;;;24.80;99.90;;;;;;20818526;28;20229;-71
2021/06/17 03:43:09;;;;;;;2.00;1.45;;;24.70;99.90;;;;;;20828707;28;20263;-71
2021/06/17 03:53:15;;;;;;;1.88;1.13;;;24.80;99.90;;;;;;20827080;28;20257;-70
2021/06/17 04:03:20;;;;;;;3.22;0.98;;;24.80;99.90;;;;;;20870991;22;20240;-68
2021/06/17 04:13:28;;;;;;;3.15;1.10;;;24.70;99.90;;;;;;20909675;28;20316;-68
2021/06/17 04:23:33;;;;;;;9.48;1.33;;;24.70;99.90;;;;;;20909162;28;20236;-66
2021/06/17 04:33:39;;;;;;;2.15;1.42;;;24.50;99.90;;;;;;20908409;28;20581;-66
2021/06/17 04:43:43;;;;;;;3.58;2.20;;;24.50;99.90;;;;;;20905995;28;20293;-67
2021/06/17 04:53:52;;;;;;;3.22;2.25;;;24.60;99.90;;;;;;20888509;28;20282;-67
2021/06/17 05:03:56;;;;;;;1.98;1.85;;;24.70;99.90;;;;;;20887963;28;20318;-68
2021/06/17 05:14:01;;;;;;;1.27;1.02;;;24.80;99.90;;;;;;20905265;28;20308;-68
2021/06/17 05:24:05;;;;;;;3.22;2.00;;;24.70;99.90;;;;;;20843325;28;20293;-67
2021/06/17 05:34:10;;;;;;;2.30;1.60;;;24.70;99.90;;;;;;20820084;28;20232;-68
2021/06/17 05:44:13;;;;;;;1.52;1.20;;;24.80;99.90;;;;;;20801813;28;20229;-66
2021/06/17 05:54:19;;;;;;;1.85;1.25;;;24.80;99.90;;;;;;20817490;28;20226;-66
2021/06/17 06:04:22;;;;;;;2.45;1.40;;;24.80;99.90;;;;;;20835911;28;20248;-69
2021/06/17 06:14:28;;;;;;;1.83;1.52;;;25.00;99.90;;;;;;20855929;28;20213;-66
2021/06/17 06:24:32;;;;;;;6.15;3.10;;;25.10;99.90;;;;;;20836354;28;20222;-66
2021/06/17 06:34:37;;;;;;;1.48;1.27;;;25.30;99.90;;;;;;20849195;28;20221;-66
2021/06/17 06:44:41;;;;;;;5.63;1.60;;;25.10;99.90;;;;;;20893797;28;20532;-65
2021/06/17 06:54:46;;;;;;;2.97;1.70;;;24.90;99.90;;;;;;20860545;28;20253;-66
2021/06/17 07:04:49;;;;;;;2.50;1.08;;;24.70;99.90;;;;;;20795346;28;20238;-66
2021/06/17 07:14:57;;;;;;;0.90;0.82;;;25.30;99.90;;;;;;20835318;28;20237;-67
2021/06/17 07:25:01;;;;;;;2.65;1.63;;;25.40;99.90;;;;;;20883156;28;20196;-65
2021/06/17 07:35:07;;;;;;;0.90;0.73;;;25.20;99.90;;;;;;20890346;28;20675;-67
2021/06/17 07:45:12;;;;;;;1.40;1.00;;;25.10;99.90;;;;;;20848609;28;20216;-66
2021/06/17 07:55:18;;;;;;;2.28;1.48;;;25.60;99.90;;;;;;20826425;28;20312;-66
2021/06/17 08:05:21;;;;;;;1.63;1.52;;;25.40;99.90;;;;;;20826440;28;20682;-68
2021/06/17 08:15:27;;;;;;;1.02;0.77;;;25.20;99.90;;;;;;20888395;28;20566;-66
2021/06/17 08:25:32;;;;;;;7.38;1.60;;;24.90;99.90;;;;;;20887063;28;20213;-67
2021/06/17 08:35:37;;;;;;;1.23;1.13;;;24.70;99.90;;;;;;20872590;28;20236;-64
2021/06/17 08:45:40;;;;;;;7.15;2.20;;;24.80;99.90;;;;;;20876207;28;20202;-64
2021/06/17 08:55:45;;;;;;;7.22;1.67;;;25.20;99.90;;;;;;20867936;28;20226;-64
2021/06/17 09:05:52;;;;;;;6.38;2.38;;;25.20;99.90;;;;;;20860022;28;20222;-66
2021/06/17 09:15:57;;;;;;;1.63;1.52;;;25.40;99.90;;;;;;20861834;28;20543;-66
2021/06/17 09:26:03;;;;;;;5.50;1.63;;;25.30;99.90;;;;;;20862192;28;20198;-66
2021/06/17 09:36:08;;;;;;;3.67;1.90;;;25.40;99.90;;;;;;20858415;28;20581;-65
2021/06/17 09:46:12;;;;;;;0.85;0.75;;;25.40;99.90;;;;;;20857376;28;20277;-65
2021/06/17 09:56:18;;;;;;;3.40;3.10;;;25.80;99.90;;;;;;20857160;28;20222;-68
2021/06/17 10:06:21;;;;;;;1.92;1.70;;;26.10;99.90;;;;;;20855312;28;20222;-65
2021/06/17 10:16:27;;;;;;;2.25;1.33;;;26.90;99.90;;;;;;20855926;28;20214;-68
2021/06/17 10:26:41;;;;;;;13.68;1.63;;;27.00;99.90;;;;;;20857214;28;20658;-64
2021/06/17 10:37:07;;;;;;;6.97;1.92;;;27.40;99.90;;;;;;20837064;28;20256;-64
2021/06/17 10:47:31;;;;;;;2.25;1.42;;;28.50;99.90;;;;;;20856455;28;20659;-64
2021/06/17 10:57:53;;;;;;;1.63;1.35;;;28.90;99.90;;;;;;20859276;28;20252;-64
2021/06/17 11:08:17;;;;;;;2.78;2.10;;;28.60;99.90;;;;;;20861303;28;20230;-65
2021/06/17 11:19:05;;;;;;;10.85;2.78;;;27.90;99.90;;;;;;20956356;28;20306;-67
2021/06/17 11:29:10;;;;;;;2.70;2.03;;;28.10;99.90;;;;;;20799705;28;20190;-68
2021/06/17 11:39:21;;;;;;;2.90;1.30;;;27.70;99.90;;;;;;20859638;28;20314;-67
2021/06/17 11:49:34;;;;;;;8.50;2.92;;;29.50;99.90;;;;;;20897300;28;20193;-67
2021/06/17 11:59:41;;;;;;;4.50;1.80;;;29.80;99.90;;;;;;20989049;28;20311;-67
2021/06/17 12:09:45;;;;;;;1.70;0.93;;;28.20;99.90;;;;;;20969391;28;20338;-65
2021/06/17 12:19:55;;;;;;;2.35;2.15;;;28.50;99.90;;;;;;20973527;28;20255;-65
2021/06/17 12:30:23;;;;;;;11.82;1.83;;;28.50;99.90;;;;;;20903700;28;20219;-65
2021/06/17 12:40:30;;;;;;;10.68;2.38;;;28.30;99.90;;;;;;20937428;28;20227;-65
2021/06/17 13:00:58;;;;;;;2.97;2.13;;;28.50;99.90;;;;;;20803692;28;143629;-66
2021/06/17 13:11:01;;;;;;;1.90;1.50;;;27.10;99.90;;;;;;20818801;28;20198;-67
2021/06/17 13:21:14;;;;;;;3.38;1.48;;;28.60;99.90;;;;;;20840100;28;20276;-67
2021/06/17 13:31:27;;;;;;;7.40;2.15;;;31.00;99.90;;;;;;20900344;28;20244;-66
2021/06/17 13:41:34;;;;;;;10.35;2.05;;;31.80;99.90;;;;;;20892472;28;20393;-65
2021/06/17 13:51:38;;;;;;;4.25;1.38;;;31.50;99.90;;;;;;20828442;28;20591;-65
2021/06/17 14:01:43;;;;;;;3.03;1.83;;;31.70;99.90;;;;;;20846745;28;20703;-68
2021/06/17 14:11:47;;;;;;;2.35;1.50;;;31.10;99.90;;;;;;20856653;28;20289;-66
2021/06/17 14:21:52;;;;;;;3.22;2.03;;;29.20;99.90;;;;;;20842487;28;20225;-65
2021/06/17 14:31:55;;;;;;;5.20;2.17;;;28.10;99.90;;;;;;20877036;28;20508;-64
2021/06/17 14:42:01;;;;;;;5.72;2.13;;;27.50;99.90;;;;;;20893684;28;20308;-66
2021/06/17 14:52:05;;;;;;;2.90;2.35;;;27.90;99.90;;;;;;20894712;28;20590;-66
2021/06/17 15:02:10;;;;;;;8.23;2.38;;;27.50;99.90;;;;;;20891562;28;20232;-64
2021/06/17 15:12:14;;;;;;;14.98;3.90;;;28.50;99.90;;;;;;20865941;28;20625;-66
2021/06/17 15:22:19;;;;;;;3.40;1.95;;;27.40;99.90;;;;;;20830974;28;20225;-65
2021/06/17 15:32:23;;;;;;;14.43;2.55;;;27.40;99.90;;;;;;20901702;28;20283;-65
2021/06/17 15:42:28;;;;;;;3.35;2.13;;;28.30;99.90;;;;;;20907101;28;20229;-64
2021/06/17 15:52:32;;;;;;;16.85;3.05;;;28.20;99.90;;;;;;20904828;28;20658;-63
2021/06/17 16:02:37;;;;;;;8.52;3.30;;;28.20;99.90;;;;;;20907995;28;20233;-66
2021/06/17 16:12:41;;;;;;;7.95;2.47;;;27.70;99.90;;;;;;20902936;28;20289;-63
2021/06/17 16:22:46;;;;;;;10.52;2.42;;;27.20;99.90;;;;;;20904052;28;20350;-63
2021/06/17 16:32:50;;;;;;;12.68;2.40;;;27.00;99.90;;;;;;20903960;28;20197;-66
2021/06/17 16:42:55;;;;;;;1.10;1.02;;;26.80;99.90;;;;;;20887154;28;20760;-65
2021/06/17 16:52:59;;;;;;;5.55;2.38;;;27.10;99.90;;;;;;20904146;28;20276;-69
2021/06/17 17:03:04;;;;;;;18.70;3.45;;;27.60;99.90;;;;;;20903894;28;20233;-68
2021/06/17 17:13:08;;;;;;;10.70;2.92;;;27.80;99.90;;;;;;20897290;28;20185;-72
2021/06/17 17:23:14;;;;;;;12.73;3.13;;;27.50;99.90;;;;;;20867616;28;20530;-68
2021/06/17 17:33:17;;;;;;;8.13;2.30;;;28.60;99.90;;;;;;20819380;28;20540;-69
2021/06/17 17:43:23;;;;;;;8.18;1.92;;;28.20;99.90;;;;;;20902256;28;20232;-69
2021/06/17 17:53:27;;;;;;;5.45;2.55;;;27.20;99.90;;;;;;20900928;28;20568;-68
2021/06/17 18:03:32;;;;;;;10.05;2.45;;;27.70;99.90;;;;;;20897816;28;20269;-69
2021/06/17 18:13:36;;;;;;;4.05;3.72;;;27.10;99.90;;;;;;20899691;28;20204;-68
2021/06/17 18:23:41;;;;;;;6.70;2.72;;;26.40;99.90;;;;;;20898112;28;20240;-69
2021/06/17 18:33:45;;;;;;;7.20;2.35;;;26.30;99.90;;;;;;20900766;28;20221;-69
2021/06/17 18:43:50;;;;;;;7.72;3.58;;;26.30;99.90;;;;;;20898390;28;20253;-71
2021/06/17 18:53:54;;;;;;;16.75;2.97;;;25.90;99.90;;;;;;20895694;28;20284;-69
2021/06/17 19:03:59;;;;;;;3.25;2.88;;;25.70;99.90;;;;;;20906871;28;20331;-67
2021/06/17 19:14:04;;;;;;;10.63;1.70;;;25.40;99.90;;;;;;20914073;28;20228;-68
2021/06/17 19:24:10;;;;;;;16.55;8.65;;;25.20;99.90;;;;;;20912655;28;20233;-70
2021/06/17 19:34:14;;;;;;;7.70;2.22;;;25.10;99.90;;;;;;20911404;28;20221;-71
2021/06/17 19:44:20;;;;;;;3.60;1.45;;;25.00;99.90;;;;;;20905477;28;20225;-70
2021/06/17 19:54:33;;;;;;;4.15;1.92;;;24.90;99.90;;;;;;20907940;28;20726;-68
2021/06/17 20:04:39;;;;;;;4.82;1.73;;;24.90;99.90;;;;;;20907229;28;20264;-69
2021/06/17 20:14:46;;;;;;;21.02;2.38;;;24.80;99.90;;;;;;20906667;28;20205;-68
2021/06/17 20:24:51;;;;;;;2.67;2.05;;;24.60;99.90;;;;;;20839209;28;20228;-67
2021/06/17 20:34:55;;;;;;;3.55;1.48;;;24.70;99.90;;;;;;20832939;28;20265;-70
2021/06/17 20:45:00;;;;;;;3.10;2.50;;;24.80;99.90;;;;;;20904085;28;20217;-70
2021/06/17 20:55:04;;;;;;;4.47;0.95;;;24.80;99.90;;;;;;20903342;28;20208;-69
2021/06/17 21:05:11;;;;;;;1.60;1.42;;;24.80;99.90;;;;;;20902300;28;20767;-71
2021/06/17 21:15:15;;;;;;;17.00;1.50;;;24.70;99.90;;;;;;20905934;28;20225;-72
2021/06/17 21:25:20;;;;;;;3.35;2.10;;;24.60;99.90;;;;;;20903887;28;20231;-72
2021/06/17 21:35:24;;;;;;;2.83;1.38;;;24.50;99.90;;;;;;20902167;28;20217;-71
2021/06/17 21:45:29;;;;;;;2.17;1.77;;;24.50;99.90;;;;;;20903804;28;20224;-71
2021/06/17 21:55:33;;;;;;;9.23;2.95;;;24.50;99.90;;;;;;20902364;28;20228;-70
2021/06/17 22:05:38;;;;;;;2.33;2.08;;;24.50;99.90;;;;;;20901872;28;20237;-71
2021/06/17 22:15:42;;;;;;;0.98;0.85;;;24.40;99.90;;;;;;20904276;28;20685;-71
2021/06/17 22:25:47;;;;;;;3.95;2.28;;;24.30;99.90;;;;;;20899610;28;20233;-71
2021/06/17 22:35:51;;;;;;;19.13;1.40;;;24.00;99.90;;;;;;20900097;28;20276;-72
2021/06/17 22:45:57;;;;;;;4.85;2.92;;;24.00;99.90;;;;;;20900067;28;20190;-72
2021/06/17 22:56:01;;;;;;;7.72;1.63;;;23.80;99.90;;;;;;20899496;28;20254;-72
2021/06/17 23:06:07;;;;;;;2.78;2.38;;;23.80;99.90;;;;;;20897902;28;20237;-71
2021/06/17 23:16:10;;;;;;;1.13;0.95;;;23.70;99.90;;;;;;20905860;28;20209;-71
2021/06/17 23:26:16;;;;;;;2.75;2.55;;;23.80;99.90;;;;;;20910624;28;20276;-73
2021/06/17 23:36:20;;;;;;;2.07;1.87;;;23.70;99.90;;;;;;20897457;28;20557;-71
2021/06/17 23:46:25;;;;;;;2.07;1.87;;;23.10;99.90;;;;;;20897740;28;20273;-71
2021/06/17 23:56:30;;;;;;;0.93;0.70;;;22.90;99.90;;;;;;20911789;28;20271;-71
